Time;durP1;ratioP1;P1;durP2;ratioP2;P2;SDS_P1;SDS_P2;PMS_P1;PMS_P2;Temp;Humidity;BMP_temperature;BMP_pressure;BME280_temperature;BME280_humidity;BME280_pressure;Samples;Min_cycle;Max_cycle;Signal;HPM_P1;HPM_P2
2023/09/23 00:01:42;;;;;;;5.40;0.87;;;16.20;76.70;;;;;;5106663;28;20475;-79
2023/09/23 00:04:11;;;;;;;3.87;0.90;;;16.20;76.60;;;;;;5110756;28;20455;-78
2023/09/23 00:06:42;;;;;;;4.90;1.10;;;16.10;76.50;;;;;;5112255;28;20456;-77
2023/09/23 00:09:10;;;;;;;3.57;0.80;;;16.10;76.50;;;;;;5108676;28;20570;-78
2023/09/23 00:11:40;;;;;;;6.23;1.17;;;16.10;76.50;;;;;;5109464;28;20483;-79
2023/09/23 00:14:09;;;;;;;3.50;0.70;;;16.10;76.50;;;;;;5091650;28;20451;-79
2023/09/23 00:16:37;;;;;;;5.67;1.07;;;16.10;76.40;;;;;;5094148;28;20450;-78
2023/09/23 00:19:08;;;;;;;5.60;1.00;;;16.00;76.40;;;;;;5105692;28;20452;-78
2023/09/23 00:21:37;;;;;;;3.63;0.90;;;16.00;76.40;;;;;;5106895;28;20451;-79
2023/09/23 00:24:08;;;;;;;4.27;0.80;;;16.00;76.40;;;;;;5110168;28;20545;-78
2023/09/23 00:26:36;;;;;;;5.47;1.20;;;16.00;76.30;;;;;;5105629;28;20483;-78
2023/09/23 00:29:04;;;;;;;3.80;0.90;;;16.00;76.30;;;;;;5093933;28;20450;-79
2023/09/23 00:31:34;;;;;;;4.47;0.87;;;16.00;76.30;;;;;;5092787;28;20974;-79
2023/09/23 00:34:02;;;;;;;3.93;0.90;;;16.00;76.30;;;;;;5109771;28;20447;-79
2023/09/23 00:36:30;;;;;;;4.47;1.10;;;16.00;76.30;;;;;;5090908;28;20461;-78
2023/09/23 00:38:58;;;;;;;4.87;0.80;;;16.00;76.30;;;;;;5108651;28;20459;-79
2023/09/23 00:41:28;;;;;;;5.30;0.70;;;16.00;76.30;;;;;;5107594;28;20457;-79
2023/09/23 00:43:56;;;;;;;5.00;0.80;;;16.10;76.30;;;;;;5091811;28;20470;-79
2023/09/23 00:46:24;;;;;;;4.40;1.00;;;16.10;76.30;;;;;;5089382;28;20504;-78
2023/09/23 00:48:54;;;;;;;4.17;0.80;;;16.10;76.20;;;;;;5103100;28;20494;-79
2023/09/23 00:51:22;;;;;;;4.53;1.17;;;16.10;76.10;;;;;;5108368;28;20559;-79
2023/09/23 00:53:51;;;;;;;4.37;0.93;;;16.10;76.10;;;;;;5110107;28;20479;-79
2023/09/23 00:56:22;;;;;;;5.60;1.03;;;16.10;76.00;;;;;;5091208;28;21200;-79
2023/09/23 00:58:52;;;;;;;5.90;1.20;;;16.10;76.00;;;;;;5100489;28;20475;-78
2023/09/23 01:01:21;;;;;;;7.70;1.17;;;16.00;76.10;;;;;;5110483;28;20996;-78
2023/09/23 01:03:49;;;;;;;4.57;1.37;;;16.00;76.20;;;;;;5111435;28;20462;-79
2023/09/23 01:06:19;;;;;;;3.70;0.93;;;16.10;76.20;;;;;;5110847;28;20930;-78
2023/09/23 01:08:47;;;;;;;3.67;1.10;;;16.00;76.20;;;;;;5088820;28;20463;-80
2023/09/23 01:11:17;;;;;;;5.43;1.50;;;16.00;76.20;;;;;;5108609;28;20470;-80
2023/09/23 01:13:50;;;;;;;6.53;1.10;;;16.00;76.30;;;;;;5095439;28;20454;-80
2023/09/23 01:16:21;;;;;;;4.67;1.00;;;16.00;76.30;;;;;;5088922;28;20474;-80
2023/09/23 01:18:53;;;;;;;7.53;1.07;;;16.00;76.30;;;;;;5106275;28;20448;-79
2023/09/23 01:21:21;;;;;;;4.80;1.03;;;16.00;76.50;;;;;;5092953;28;20542;-79
2023/09/23 01:23:51;;;;;;;5.50;2.00;;;16.00;76.50;;;;;;5089684;28;21015;-80
2023/09/23 01:26:20;;;;;;;3.50;0.90;;;16.00;76.60;;;;;;5103178;28;20448;-79
2023/09/23 01:28:49;;;;;;;4.47;1.00;;;16.00;76.60;;;;;;5093218;28;20872;-78
2023/09/23 01:31:29;;;;;;;5.43;1.20;;;16.00;76.50;;;;;;5089697;28;20483;-81
2023/09/23 01:33:58;;;;;;;4.03;0.93;;;16.00;76.60;;;;;;5107647;28;20461;-80
2023/09/23 01:36:28;;;;;;;4.40;0.83;;;16.00;76.70;;;;;;5110136;28;20477;-80
2023/09/23 01:38:59;;;;;;;3.70;0.93;;;16.00;76.60;;;;;;5106813;28;20465;-79
2023/09/23 01:41:27;;;;;;;4.70;1.00;;;16.00;76.60;;;;;;5089976;28;20538;-77
2023/09/23 01:43:55;;;;;;;3.93;0.97;;;16.00;76.60;;;;;;5090687;28;20861;-79
2023/09/23 01:46:24;;;;;;;3.80;0.97;;;15.90;76.70;;;;;;5106859;28;20444;-77
2023/09/23 01:48:53;;;;;;;3.90;1.00;;;15.90;76.70;;;;;;5110879;27;20451;-78
2023/09/23 01:51:22;;;;;;;8.10;1.17;;;15.90;76.80;;;;;;5104708;28;20477;-78
2023/09/23 01:53:50;;;;;;;13.90;1.37;;;15.80;76.80;;;;;;5109649;28;20877;-78
2023/09/23 01:56:20;;;;;;;4.13;0.90;;;15.80;76.80;;;;;;5089633;28;21028;-79
2023/09/23 01:58:48;;;;;;;5.90;1.20;;;15.80;76.80;;;;;;5109823;28;20435;-79
2023/09/23 02:01:17;;;;;;;3.63;1.07;;;15.80;76.80;;;;;;5089535;28;20468;-79
2023/09/23 02:03:45;;;;;;;4.13;0.97;;;15.80;76.90;;;;;;5090085;28;20449;-79
2023/09/23 02:06:22;;;;;;;3.40;0.90;;;15.80;76.80;;;;;;5093566;28;20466;-81
2023/09/23 02:08:50;;;;;;;5.57;1.37;;;15.70;76.80;;;;;;5110325;28;21017;-79
2023/09/23 02:11:20;;;;;;;4.27;1.00;;;15.70;76.80;;;;;;5110620;28;20490;-80
2023/09/23 02:13:48;;;;;;;3.70;1.13;;;15.70;76.80;;;;;;5108826;28;20448;-79
2023/09/23 02:16:18;;;;;;;3.57;0.90;;;15.60;76.80;;;;;;5112919;28;20459;-80
2023/09/23 02:18:51;;;;;;;3.73;1.07;;;15.60;76.70;;;;;;5107584;28;20520;-79
2023/09/23 02:21:19;;;;;;;4.10;1.20;;;15.60;76.70;;;;;;5087114;28;20463;-79
2023/09/23 02:23:47;;;;;;;3.67;1.00;;;15.60;76.80;;;;;;5104417;28;20546;-80
2023/09/23 02:26:15;;;;;;;3.50;1.10;;;15.60;76.70;;;;;;5088161;28;20468;-80
2023/09/23 02:28:47;;;;;;;4.63;1.23;;;15.60;76.70;;;;;;5108124;28;20440;-80
2023/09/23 02:31:15;;;;;;;5.47;1.10;;;15.60;76.70;;;;;;5107412;28;21035;-80
2023/09/23 02:33:44;;;;;;;3.80;0.90;;;15.60;76.70;;;;;;5110119;28;20454;-80
2023/09/23 02:36:14;;;;;;;6.33;1.20;;;15.60;76.70;;;;;;5110381;28;20466;-80
2023/09/23 02:38:43;;;;;;;3.83;1.20;;;15.60;76.70;;;;;;5102724;28;20541;-79
2023/09/23 02:41:11;;;;;;;5.50;1.03;;;15.60;76.50;;;;;;5108939;28;20525;-80
2023/09/23 02:43:40;;;;;;;3.87;1.40;;;15.50;76.50;;;;;;5087545;28;20499;-79
2023/09/23 02:46:09;;;;;;;6.13;0.90;;;15.50;76.50;;;;;;5087796;28;20459;-79
2023/09/23 02:48:37;;;;;;;3.90;0.90;;;15.50;76.40;;;;;;5090782;28;21078;-80
2023/09/23 02:51:05;;;;;;;4.00;1.13;;;15.40;76.40;;;;;;5092119;28;20487;-79
2023/09/23 02:53:34;;;;;;;4.20;1.10;;;15.40;76.40;;;;;;5097946;28;20455;-79
2023/09/23 02:56:07;;;;;;;3.80;1.20;;;15.40;76.30;;;;;;5105394;28;20478;-80
2023/09/23 02:58:37;;;;;;;4.17;1.03;;;15.30;76.30;;;;;;5104380;28;20502;-79
2023/09/23 03:01:09;;;;;;;3.50;0.97;;;15.30;76.40;;;;;;5089944;28;20477;-79
2023/09/23 03:03:40;;;;;;;3.80;1.10;;;15.30;76.30;;;;;;5106685;28;20452;-78
2023/09/23 03:06:10;;;;;;;5.00;1.27;;;15.30;76.30;;;;;;5091187;28;20490;-79
2023/09/23 03:08:38;;;;;;;4.10;1.13;;;15.30;76.30;;;;;;5088049;28;20868;-79
2023/09/23 03:11:11;;;;;;;3.70;1.10;;;15.30;76.30;;;;;;5101821;28;20453;-80
2023/09/23 03:13:39;;;;;;;3.43;1.00;;;15.30;76.30;;;;;;5102585;28;20470;-79
2023/09/23 03:16:12;;;;;;;3.57;0.93;;;15.30;76.30;;;;;;5087955;28;20455;-80
2023/09/23 03:18:54;;;;;;;4.10;1.00;;;15.30;76.20;;;;;;5107050;28;20477;-80
2023/09/23 03:21:25;;;;;;;4.27;1.37;;;15.30;76.30;;;;;;5089302;28;20470;-79
2023/09/23 03:23:53;;;;;;;5.93;1.10;;;15.20;76.20;;;;;;5106888;28;20553;-80
2023/09/23 03:26:22;;;;;;;5.83;1.20;;;15.20;76.20;;;;;;5094037;28;20568;-79
2023/09/23 03:28:50;;;;;;;3.63;1.07;;;15.20;76.10;;;;;;5105791;28;20520;-79
2023/09/23 03:31:19;;;;;;;6.20;1.00;;;15.20;76.10;;;;;;5108281;28;20871;-79
2023/09/23 03:33:51;;;;;;;4.97;1.30;;;15.20;76.10;;;;;;5092798;28;20463;-79
2023/09/23 03:36:20;;;;;;;3.70;1.07;;;15.10;76.10;;;;;;5090763;28;20455;-79
2023/09/23 03:38:49;;;;;;;3.97;1.20;;;15.10;76.10;;;;;;5107316;28;20450;-78
2023/09/23 03:41:17;;;;;;;5.93;0.87;;;15.10;76.00;;;;;;5101169;28;21085;-80
2023/09/23 03:43:45;;;;;;;5.50;1.20;;;15.10;76.00;;;;;;5111022;28;20472;-80
2023/09/23 03:46:14;;;;;;;4.43;1.17;;;15.10;76.00;;;;;;5091971;28;20510;-80
2023/09/23 03:48:43;;;;;;;3.50;1.00;;;15.10;76.00;;;;;;5091816;28;20497;-79
2023/09/23 03:51:15;;;;;;;4.10;1.27;;;15.10;76.00;;;;;;5094398;28;20514;-79
2023/09/23 03:53:44;;;;;;;6.13;1.40;;;15.10;75.90;;;;;;5089168;28;20993;-80
2023/09/23 03:56:12;;;;;;;3.90;1.13;;;15.10;76.00;;;;;;5112962;28;20855;-80
2023/09/23 03:58:42;;;;;;;5.00;1.40;;;15.10;75.90;;;;;;5110979;28;20473;-79
2023/09/23 04:01:13;;;;;;;4.10;1.20;;;15.00;75.90;;;;;;5093696;28;20475;-79
2023/09/23 04:03:42;;;;;;;5.80;1.77;;;15.00;76.00;;;;;;5092238;28;20457;-79
2023/09/23 04:06:11;;;;;;;6.27;1.47;;;15.00;75.90;;;;;;5110105;28;20535;-80
2023/09/23 04:08:41;;;;;;;6.40;1.40;;;15.00;75.90;;;;;;5104009;28;20603;-78
2023/09/23 04:11:09;;;;;;;4.33;1.37;;;15.00;75.90;;;;;;5108218;28;20937;-80
2023/09/23 04:13:38;;;;;;;4.80;1.30;;;15.00;76.00;;;;;;5110087;28;21001;-77
2023/09/23 04:16:06;;;;;;;5.03;1.17;;;15.00;75.90;;;;;;5110960;28;20471;-80
2023/09/23 04:18:34;;;;;;;4.30;1.60;;;15.00;75.90;;;;;;5111121;28;20490;-80
2023/09/23 04:21:02;;;;;;;3.70;1.40;;;15.00;75.90;;;;;;5109384;28;20455;-79
2023/09/23 04:23:30;;;;;;;7.67;1.67;;;15.00;75.80;;;;;;5107506;28;20523;-79
2023/09/23 04:26:02;;;;;;;4.80;1.50;;;14.90;75.70;;;;;;5109927;28;20979;-79
2023/09/23 04:28:31;;;;;;;5.60;1.70;;;14.90;75.70;;;;;;5091622;28;20468;-80
2023/09/23 04:30:59;;;;;;;4.50;1.70;;;14.90;75.80;;;;;;5104970;28;20489;-79
2023/09/23 04:33:28;;;;;;;5.60;1.80;;;14.90;75.90;;;;;;5091450;28;20524;-79
2023/09/23 04:35:58;;;;;;;3.60;1.40;;;14.80;75.80;;;;;;5109674;28;21007;-80
2023/09/23 04:38:26;;;;;;;4.53;1.70;;;14.80;75.80;;;;;;5108458;28;20458;-79
2023/09/23 04:40:55;;;;;;;4.20;1.63;;;14.80;75.90;;;;;;5108955;28;20447;-79
2023/09/23 04:43:25;;;;;;;4.53;1.80;;;14.80;75.90;;;;;;5104793;28;20475;-78
2023/09/23 04:45:54;;;;;;;5.53;1.53;;;14.80;75.90;;;;;;5109117;28;20960;-79
2023/09/23 04:48:24;;;;;;;4.33;1.40;;;14.80;75.90;;;;;;5111470;28;20448;-79
2023/09/23 04:50:55;;;;;;;5.37;1.73;;;14.90;75.90;;;;;;5109868;28;21004;-79
2023/09/23 04:53:27;;;;;;;4.40;1.87;;;14.90;75.90;;;;;;5108504;28;20465;-79
2023/09/23 04:55:55;;;;;;;5.27;2.03;;;14.90;75.90;;;;;;5093812;28;20458;-80
2023/09/23 04:58:24;;;;;;;5.07;1.57;;;14.90;75.80;;;;;;5088745;28;20445;-79
2023/09/23 05:00:52;;;;;;;4.30;1.77;;;14.90;75.70;;;;;;5106916;28;20473;-79
2023/09/23 05:03:23;;;;;;;4.80;2.20;;;14.90;75.70;;;;;;5115981;28;20489;-77
2023/09/23 05:05:51;;;;;;;4.40;1.90;;;14.80;75.70;;;;;;5095904;28;20542;-79
2023/09/23 05:08:19;;;;;;;7.57;2.37;;;14.80;75.80;;;;;;5112891;28;20953;-78
2023/09/23 05:10:49;;;;;;;4.50;1.67;;;14.80;75.80;;;;;;5109174;28;20446;-78
2023/09/23 05:13:17;;;;;;;5.20;2.20;;;14.80;75.80;;;;;;5109249;28;20473;-79
2023/09/23 05:15:47;;;;;;;6.03;1.93;;;14.80;75.80;;;;;;5109066;28;20459;-79
2023/09/23 05:18:15;;;;;;;7.40;2.67;;;14.80;75.60;;;;;;5091706;28;20459;-78
2023/09/23 05:20:42;;;;;;;6.30;2.40;;;14.80;75.60;;;;;;5106759;28;20472;-80
2023/09/23 05:23:11;;;;;;;3.90;1.73;;;14.80;75.70;;;;;;5088443;28;20553;-78
2023/09/23 05:25:41;;;;;;;5.17;1.80;;;14.80;75.80;;;;;;5100582;28;20965;-78
2023/09/23 05:28:10;;;;;;;4.73;2.00;;;14.80;75.80;;;;;;5106926;28;20446;-79
2023/09/23 05:30:38;;;;;;;5.13;1.70;;;14.80;75.80;;;;;;5108708;28;20557;-79
2023/09/23 05:33:10;;;;;;;6.87;2.00;;;14.80;75.70;;;;;;5109416;28;20579;-77
2023/09/23 05:35:39;;;;;;;4.10;1.67;;;14.80;75.80;;;;;;5108331;28;20449;-79
2023/09/23 05:38:09;;;;;;;5.50;2.23;;;14.80;75.80;;;;;;5109028;28;20460;-78
2023/09/23 05:40:37;;;;;;;4.60;1.80;;;14.70;75.80;;;;;;5107800;28;20475;-78
2023/09/23 05:43:06;;;;;;;6.47;1.90;;;14.70;75.80;;;;;;5105731;28;20542;-78
2023/09/23 05:45:40;;;;;;;5.43;2.23;;;14.70;75.80;;;;;;5108333;28;20828;-78
2023/09/23 05:48:09;;;;;;;6.20;1.80;;;14.70;75.70;;;;;;5090557;28;20842;-77
2023/09/23 05:50:38;;;;;;;4.40;1.80;;;14.80;75.70;;;;;;5102595;28;20457;-78
2023/09/23 05:53:06;;;;;;;6.03;2.00;;;14.70;75.70;;;;;;5112088;28;20481;-78
2023/09/23 05:55:34;;;;;;;6.70;2.17;;;14.70;75.80;;;;;;5106801;28;20760;-78
2023/09/23 05:58:02;;;;;;;4.70;1.90;;;14.70;75.80;;;;;;5105927;28;20470;-79
2023/09/23 06:00:31;;;;;;;6.17;1.80;;;14.70;75.90;;;;;;5103029;28;20527;-79
2023/09/23 06:02:59;;;;;;;5.07;1.83;;;14.80;76.00;;;;;;5108979;28;21010;-79
2023/09/23 06:05:28;;;;;;;5.10;1.90;;;14.80;76.00;;;;;;5088308;28;20457;-79
2023/09/23 06:07:56;;;;;;;5.37;2.13;;;14.80;75.90;;;;;;5106263;28;20540;-79
2023/09/23 06:10:25;;;;;;;6.80;2.33;;;14.80;76.00;;;;;;5104505;28;20454;-79
2023/09/23 06:12:52;;;;;;;6.00;2.10;;;14.80;76.00;;;;;;5103092;28;20438;-79
2023/09/23 06:15:21;;;;;;;4.50;1.43;;;14.80;76.10;;;;;;5107541;28;20459;-80
2023/09/23 06:17:55;;;;;;;4.87;1.97;;;14.90;76.10;;;;;;5107095;28;20645;-79
2023/09/23 06:20:23;;;;;;;5.70;2.03;;;14.90;76.00;;;;;;5107499;28;20489;-79
2023/09/23 06:22:53;;;;;;;4.87;1.87;;;14.90;76.00;;;;;;5107345;28;20497;-79
2023/09/23 06:25:21;;;;;;;3.93;1.50;;;14.90;76.20;;;;;;5105937;28;20938;-79
2023/09/23 06:27:49;;;;;;;5.43;1.90;;;14.90;76.20;;;;;;5103079;28;20439;-79
2023/09/23 06:30:17;;;;;;;4.40;1.93;;;15.00;76.20;;;;;;5107967;28;20467;-79
2023/09/23 06:32:47;;;;;;;4.17;1.70;;;15.00;76.10;;;;;;5088814;28;20463;-77
2023/09/23 06:35:15;;;;;;;4.87;1.70;;;15.00;76.10;;;;;;5103122;28;20475;-79
2023/09/23 06:37:44;;;;;;;3.93;1.47;;;15.00;76.10;;;;;;5105016;28;20476;-79
2023/09/23 06:40:14;;;;;;;6.17;1.90;;;14.90;76.20;;;;;;5097847;28;20496;-79
2023/09/23 06:42:42;;;;;;;4.63;1.60;;;14.90;76.30;;;;;;5105708;28;20480;-78
2023/09/23 06:45:12;;;;;;;7.13;1.83;;;15.00;76.40;;;;;;5109416;28;20443;-78
2023/09/23 06:47:40;;;;;;;6.73;1.80;;;15.00;76.40;;;;;;5100662;28;20462;-80
2023/09/23 06:50:08;;;;;;;6.40;1.40;;;15.00;76.30;;;;;;5108074;28;20503;-79
2023/09/23 06:52:37;;;;;;;4.70;1.70;;;15.00;76.40;;;;;;5102009;28;20461;-79
2023/09/23 06:55:05;;;;;;;4.53;1.80;;;15.10;76.50;;;;;;5111167;28;20471;-78
2023/09/23 06:57:35;;;;;;;11.03;2.00;;;15.10;76.50;;;;;;5104983;28;20457;-77
2023/09/23 07:00:07;;;;;;;8.87;1.80;;;15.10;76.50;;;;;;5094979;28;20491;-79
2023/09/23 07:02:35;;;;;;;5.40;1.90;;;15.10;76.60;;;;;;5112545;28;20458;-78
2023/09/23 07:05:04;;;;;;;5.10;2.17;;;15.10;76.70;;;;;;5104564;28;20455;-78
2023/09/23 07:07:32;;;;;;;7.10;2.00;;;15.20;76.80;;;;;;5095231;28;20454;-79
2023/09/23 07:10:00;;;;;;;5.27;2.17;;;15.20;76.80;;;;;;5094823;28;20497;-78
2023/09/23 07:12:29;;;;;;;11.70;1.60;;;15.20;76.90;;;;;;5111873;28;20454;-79
2023/09/23 07:15:06;;;;;;;6.93;1.70;;;15.30;76.90;;;;;;5109183;28;20478;-78
2023/09/23 07:17:34;;;;;;;6.93;1.70;;;15.30;76.80;;;;;;5109232;28;20956;-78
2023/09/23 07:20:03;;;;;;;4.77;1.90;;;15.30;76.70;;;;;;5109369;28;20452;-78
2023/09/23 07:22:31;;;;;;;7.23;1.67;;;15.30;76.90;;;;;;5092899;28;20961;-78
2023/09/23 07:25:00;;;;;;;8.00;2.17;;;15.30;76.90;;;;;;5110723;28;20490;-79
2023/09/23 07:27:28;;;;;;;6.17;1.97;;;15.30;76.90;;;;;;5108148;28;20961;-78
2023/09/23 07:29:56;;;;;;;4.50;1.77;;;15.30;77.00;;;;;;5111420;28;20446;-78
2023/09/23 07:32:26;;;;;;;4.13;1.43;;;15.40;77.10;;;;;;5105879;28;20602;-79
2023/09/23 07:34:54;;;;;;;5.83;1.50;;;15.40;77.10;;;;;;5109747;28;20475;-78
2023/09/23 07:37:23;;;;;;;7.00;1.60;;;15.40;77.20;;;;;;5093281;28;20459;-79
2023/09/23 07:39:51;;;;;;;7.27;1.73;;;15.40;77.30;;;;;;5094929;28;20554;-79
2023/09/23 07:42:19;;;;;;;5.53;1.57;;;15.40;77.30;;;;;;5108357;28;20473;-79
2023/09/23 07:44:47;;;;;;;4.93;1.50;;;15.50;77.40;;;;;;5092319;28;20466;-78
2023/09/23 07:47:15;;;;;;;6.30;1.70;;;15.50;77.40;;;;;;5083853;28;20452;-79
2023/09/23 07:49:44;;;;;;;6.93;1.90;;;15.60;77.30;;;;;;5108539;28;20490;-78
2023/09/23 07:52:12;;;;;;;6.20;2.10;;;15.60;77.30;;;;;;5094370;28;20451;-79
2023/09/23 07:54:40;;;;;;;8.77;1.70;;;15.60;77.30;;;;;;5110374;28;20892;-79
2023/09/23 07:57:08;;;;;;;6.00;1.90;;;15.60;77.40;;;;;;5112308;28;20864;-79
2023/09/23 07:59:36;;;;;;;7.03;1.83;;;15.60;77.50;;;;;;5110323;28;20856;-79
2023/09/23 08:02:04;;;;;;;8.33;2.40;;;15.70;77.50;;;;;;5109841;28;20843;-79
2023/09/23 08:04:32;;;;;;;5.13;1.93;;;15.70;77.40;;;;;;5109711;28;20534;-79
2023/09/23 08:07:01;;;;;;;6.80;2.00;;;15.70;77.50;;;;;;5109446;28;20476;-78
2023/09/23 08:09:30;;;;;;;3.87;1.53;;;15.70;77.50;;;;;;5109073;28;20946;-78
2023/09/23 08:11:57;;;;;;;6.10;2.00;;;15.80;77.50;;;;;;5109244;28;20472;-80
2023/09/23 08:14:26;;;;;;;5.33;1.47;;;15.80;77.50;;;;;;5111296;28;20502;-78
2023/09/23 08:16:55;;;;;;;7.37;2.00;;;15.80;77.50;;;;;;5106736;28;20448;-78
2023/09/23 08:19:24;;;;;;;5.10;1.63;;;15.80;77.60;;;;;;5108152;28;20456;-78
2023/09/23 08:21:53;;;;;;;4.60;1.43;;;15.90;77.50;;;;;;5093802;28;20452;-78
2023/09/23 08:24:22;;;;;;;6.73;1.73;;;15.90;77.50;;;;;;5106683;28;20956;-78
2023/09/23 08:26:50;;;;;;;5.03;1.53;;;16.00;77.50;;;;;;5112233;28;20483;-78
2023/09/23 08:29:20;;;;;;;4.60;1.50;;;16.00;77.40;;;;;;5106048;28;20459;-78
2023/09/23 08:31:48;;;;;;;6.13;1.30;;;16.00;77.30;;;;;;5110123;28;20634;-77
2023/09/23 08:34:17;;;;;;;6.00;1.70;;;16.00;77.40;;;;;;5108979;28;20466;-78
2023/09/23 08:36:44;;;;;;;5.00;1.43;;;16.10;77.40;;;;;;5112252;28;20458;-78
2023/09/23 08:39:13;;;;;;;5.73;1.70;;;16.10;77.40;;;;;;5108006;28;21140;-77
2023/09/23 08:41:52;;;;;;;9.03;1.50;;;16.20;77.40;;;;;;5110645;28;20460;-78
2023/09/23 08:44:22;;;;;;;5.43;1.30;;;16.30;77.30;;;;;;5111675;28;20460;-78
2023/09/23 08:46:54;;;;;;;5.27;1.30;;;16.30;77.20;;;;;;5108489;28;20487;-78
2023/09/23 08:49:22;;;;;;;51.00;31.80;;;16.30;77.10;;;;;;5084368;28;20464;-78
2023/09/23 08:51:54;;;;;;;54.20;8.93;;;16.30;77.10;;;;;;5095782;28;20464;-78
2023/09/23 08:54:25;;;;;;;18.17;2.50;;;16.40;77.20;;;;;;5111398;28;20448;-79
2023/09/23 08:56:55;;;;;;;10.40;2.20;;;16.50;77.50;;;;;;5107062;28;20546;-79
2023/09/23 08:59:26;;;;;;;5.63;1.63;;;16.70;77.60;;;;;;5106574;28;20459;-80
2023/09/23 09:01:55;;;;;;;73.60;7.80;;;16.90;77.50;;;;;;5106884;28;20472;-79
2023/09/23 09:04:24;;;;;;;27.33;4.83;;;17.00;77.50;;;;;;5093645;28;20823;-80
2023/09/23 09:06:55;;;;;;;13.47;1.80;;;17.20;77.20;;;;;;5110442;28;20462;-78
2023/09/23 09:09:23;;;;;;;57.93;5.97;;;17.30;76.80;;;;;;5106298;28;20555;-80
2023/09/23 09:11:53;;;;;;;142.80;10.27;;;17.30;76.70;;;;;;5107155;28;20467;-81
2023/09/23 09:14:23;;;;;;;32.07;3.60;;;17.40;76.60;;;;;;5107688;28;20452;-83
2023/09/23 09:16:51;;;;;;;19.80;2.03;;;17.50;76.60;;;;;;5109687;28;20452;-79
2023/09/23 09:19:19;;;;;;;8.23;1.50;;;17.50;76.50;;;;;;5110056;28;20448;-81
2023/09/23 09:21:49;;;;;;;7.90;1.80;;;17.60;76.50;;;;;;5110768;28;20456;-80
2023/09/23 09:24:17;;;;;;;6.10;1.40;;;17.70;76.40;;;;;;5109276;28;20474;-81
2023/09/23 09:26:45;;;;;;;10.43;1.60;;;17.80;76.20;;;;;;5109125;28;20479;-80
2023/09/23 09:29:13;;;;;;;6.20;1.50;;;17.80;76.00;;;;;;5090184;28;21055;-80
2023/09/23 09:31:45;;;;;;;6.07;1.53;;;17.80;75.70;;;;;;5105837;28;20479;-79
2023/09/23 09:34:14;;;;;;;9.23;1.60;;;17.70;75.50;;;;;;5103872;28;20467;-80
2023/09/23 09:36:42;;;;;;;5.87;1.57;;;17.60;75.30;;;;;;5110174;28;20484;-82
2023/09/23 09:39:17;;;;;;;8.93;1.27;;;17.50;75.20;;;;;;5110939;28;20750;-80
2023/09/23 09:41:48;;;;;;;7.47;1.23;;;17.50;75.30;;;;;;5092188;28;20451;-82
2023/09/23 09:44:22;;;;;;;5.70;1.50;;;17.50;75.30;;;;;;5103086;28;21032;-81
2023/09/23 09:46:54;;;;;;;8.10;1.40;;;17.50;75.20;;;;;;5106189;28;20529;-79
2023/09/23 09:49:23;;;;;;;7.30;1.50;;;17.50;75.10;;;;;;5108497;28;20451;-78
2023/09/23 09:51:52;;;;;;;18.07;1.97;;;17.60;75.30;;;;;;5105434;28;20452;-80
2023/09/23 09:54:25;;;;;;;15.80;1.83;;;17.70;75.50;;;;;;5089587;28;20448;-79
2023/09/23 09:56:55;;;;;;;9.07;2.10;;;17.80;75.30;;;;;;5086848;28;20506;-81
2023/09/23 09:59:26;;;;;;;4.43;1.33;;;17.80;75.20;;;;;;5099739;28;20466;-80
2023/09/23 10:01:58;;;;;;;5.57;1.00;;;17.90;74.70;;;;;;5108081;28;20471;-79
2023/09/23 10:04:31;;;;;;;6.70;1.47;;;17.90;74.50;;;;;;5109021;28;20451;-79
2023/09/23 10:06:59;;;;;;;6.17;1.57;;;17.90;74.10;;;;;;5090031;28;20451;-79
2023/09/23 10:09:28;;;;;;;9.00;2.10;;;17.80;74.00;;;;;;5107570;28;20459;-79
2023/09/23 10:11:59;;;;;;;9.33;2.27;;;17.70;73.80;;;;;;5087440;28;20554;-82
2023/09/23 10:14:28;;;;;;;5.50;2.13;;;17.70;73.80;;;;;;5104190;28;20504;-80
2023/09/23 10:17:01;;;;;;;6.10;1.63;;;17.60;73.90;;;;;;5104666;28;20542;-82
2023/09/23 10:19:31;;;;;;;6.00;1.20;;;17.60;73.90;;;;;;5105959;28;20484;-79
2023/09/23 10:22:18;;;;;;;7.70;1.53;;;17.60;73.80;;;;;;5088323;28;20456;-79
2023/09/23 10:24:46;;;;;;;4.70;1.50;;;17.60;73.50;;;;;;5085605;28;20460;-79
2023/09/23 10:27:21;;;;;;;8.07;2.10;;;17.60;73.50;;;;;;5105289;28;20440;-80
2023/09/23 10:29:49;;;;;;;6.10;1.93;;;17.70;73.40;;;;;;5105666;28;20440;-81
2023/09/23 10:32:19;;;;;;;5.10;1.30;;;17.70;73.40;;;;;;5106083;28;20472;-78
2023/09/23 10:34:49;;;;;;;6.70;2.43;;;17.70;73.30;;;;;;5086809;28;20452;-81
2023/09/23 10:37:28;;;;;;;5.90;1.50;;;17.70;73.20;;;;;;5105599;28;20470;-80
2023/09/23 10:39:57;;;;;;;6.00;1.70;;;17.80;73.00;;;;;;5104373;28;20848;-82
2023/09/23 10:42:24;;;;;;;10.13;1.43;;;17.80;72.90;;;;;;5106787;28;20502;-81
2023/09/23 10:44:58;;;;;;;7.27;1.33;;;17.80;72.90;;;;;;5108152;28;20462;-79
2023/09/23 10:47:28;;;;;;;4.57;0.97;;;17.70;72.80;;;;;;5106424;28;20444;-80
2023/09/23 10:49:57;;;;;;;4.03;1.07;;;17.80;72.70;;;;;;5107604;28;20720;-79
2023/09/23 10:52:25;;;;;;;8.07;1.50;;;17.70;72.70;;;;;;5092418;28;20804;-79
2023/09/23 10:54:53;;;;;;;5.03;1.43;;;17.70;72.70;;;;;;5104635;28;20460;-80
2023/09/23 10:57:21;;;;;;;6.13;1.33;;;17.80;72.60;;;;;;5105234;28;20472;-80
2023/09/23 10:59:51;;;;;;;6.23;1.67;;;17.70;72.50;;;;;;5094397;28;20452;-80
2023/09/23 11:02:20;;;;;;;7.37;1.30;;;17.80;72.50;;;;;;5105564;28;20484;-79
2023/09/23 11:04:50;;;;;;;4.03;1.27;;;17.80;72.50;;;;;;5090405;28;20533;-81
2023/09/23 11:07:19;;;;;;;5.73;1.40;;;17.80;72.50;;;;;;5107117;28;20432;-78
2023/09/23 11:09:47;;;;;;;4.40;1.00;;;17.80;72.40;;;;;;5087990;28;20466;-79
2023/09/23 11:12:17;;;;;;;4.30;1.27;;;17.80;72.50;;;;;;5105106;28;20451;-81
2023/09/23 11:14:47;;;;;;;4.50;1.30;;;17.80;72.40;;;;;;5103415;28;20462;-79
2023/09/23 11:17:23;;;;;;;6.10;1.57;;;17.90;72.40;;;;;;5106840;28;20545;-79
2023/09/23 11:19:58;;;;;;;5.30;1.37;;;17.90;72.40;;;;;;5103774;28;20472;-80
2023/09/23 11:22:26;;;;;;;6.13;1.20;;;17.90;72.40;;;;;;5102635;28;20797;-80
2023/09/23 11:24:56;;;;;;;5.50;1.37;;;17.90;72.50;;;;;;5103447;28;20455;-79
2023/09/23 11:27:26;;;;;;;4.83;1.07;;;18.00;72.60;;;;;;5085771;28;21278;-79
2023/09/23 11:29:55;;;;;;;5.40;1.10;;;18.00;72.50;;;;;;5105448;28;20528;-81
2023/09/23 11:32:24;;;;;;;4.27;1.00;;;18.10;72.50;;;;;;5086828;28;20843;-79
2023/09/23 11:34:54;;;;;;;6.10;1.40;;;18.10;72.30;;;;;;5090329;28;20475;-79
2023/09/23 11:37:23;;;;;;;14.13;1.70;;;18.10;72.20;;;;;;5086522;28;20478;-80
2023/09/23 11:39:51;;;;;;;9.07;4.87;;;18.10;72.20;;;;;;5108382;28;20817;-81
2023/09/23 11:42:20;;;;;;;9.03;1.83;;;18.10;72.20;;;;;;5105801;28;20444;-79
2023/09/23 11:44:48;;;;;;;5.00;1.40;;;18.20;72.10;;;;;;5107221;28;21223;-79
2023/09/23 11:47:20;;;;;;;5.27;1.20;;;18.20;72.10;;;;;;5090659;28;20452;-78
2023/09/23 11:49:49;;;;;;;4.37;1.40;;;18.20;72.00;;;;;;5110407;28;20460;-80
2023/09/23 11:52:17;;;;;;;6.77;2.30;;;18.20;72.00;;;;;;5107761;28;20487;-79
2023/09/23 11:54:46;;;;;;;7.40;1.90;;;18.20;71.80;;;;;;5103142;28;20445;-80
2023/09/23 11:57:14;;;;;;;25.03;5.73;;;18.20;71.70;;;;;;5106176;28;20486;-77
2023/09/23 11:59:44;;;;;;;24.30;4.97;;;18.20;71.60;;;;;;5107449;28;20516;-78
2023/09/23 12:02:13;;;;;;;5.33;1.40;;;18.20;71.70;;;;;;5103548;28;20475;-79
2023/09/23 12:04:41;;;;;;;6.77;1.50;;;18.30;71.80;;;;;;5110377;28;20461;-78
2023/09/23 12:07:11;;;;;;;44.97;12.67;;;18.30;71.70;;;;;;5102409;28;20942;-78
2023/09/23 12:09:39;;;;;;;19.67;5.57;;;18.40;71.80;;;;;;5107920;28;20543;-81
2023/09/23 12:12:10;;;;;;;9.20;1.63;;;18.40;71.70;;;;;;5105070;28;20548;-78
2023/09/23 12:14:42;;;;;;;8.17;1.90;;;18.40;71.60;;;;;;5108375;28;20500;-79
2023/09/23 12:17:14;;;;;;;7.53;1.73;;;18.40;71.40;;;;;;5108975;28;20483;-78
2023/09/23 12:19:44;;;;;;;6.77;1.43;;;18.40;71.30;;;;;;5108518;28;20853;-80
2023/09/23 12:22:15;;;;;;;4.00;1.17;;;18.40;70.90;;;;;;5105725;28;20517;-79
2023/09/23 12:24:44;;;;;;;4.80;1.73;;;18.30;71.00;;;;;;5107480;28;20452;-81
2023/09/23 12:27:13;;;;;;;4.20;1.10;;;18.30;71.10;;;;;;5108300;28;20444;-78
2023/09/23 12:29:41;;;;;;;5.60;1.17;;;18.30;71.00;;;;;;5108990;28;20808;-80
2023/09/23 12:32:10;;;;;;;5.13;1.10;;;18.30;71.00;;;;;;5109161;28;20471;-77
2023/09/23 12:34:38;;;;;;;5.80;1.20;;;18.30;71.00;;;;;;5107219;28;20447;-79
2023/09/23 12:37:06;;;;;;;9.50;1.50;;;18.40;70.80;;;;;;5092030;28;20468;-80
2023/09/23 12:39:34;;;;;;;10.43;1.43;;;18.40;70.70;;;;;;5112759;28;20451;-79
2023/09/23 12:42:02;;;;;;;6.43;1.70;;;18.40;70.70;;;;;;5110381;28;20480;-81
2023/09/23 12:44:31;;;;;;;4.20;0.90;;;18.40;70.60;;;;;;5102255;28;20460;-80
2023/09/23 12:46:59;;;;;;;4.63;0.90;;;18.40;70.60;;;;;;5107570;28;20440;-80
2023/09/23 12:49:27;;;;;;;3.80;0.70;;;18.50;70.50;;;;;;5102659;28;20539;-79
2023/09/23 12:51:55;;;;;;;6.10;0.93;;;18.50;70.40;;;;;;5106434;28;21013;-79
2023/09/23 12:54:24;;;;;;;11.50;1.50;;;18.50;70.40;;;;;;5106194;28;20807;-79
2023/09/23 12:56:52;;;;;;;6.37;1.33;;;18.50;70.20;;;;;;5108173;28;20981;-81